createdAt,value
2022-12-14T05:55:25.566Z,980.60
2022-12-14T05:56:25.268Z,980.61
2022-12-14T05:57:25.316Z,980.59
2022-12-14T05:58:25.235Z,980.57
2022-12-14T05:59:25.259Z,980.61
2022-12-14T06:00:25.222Z,980.58
2022-12-14T06:01:25.276Z,980.60
2022-12-14T06:02:25.383Z,980.58
2022-12-14T06:03:25.469Z,980.51
2022-12-14T06:04:25.226Z,980.50
2022-12-14T06:05:25.171Z,980.45
2022-12-14T06:06:25.210Z,980.41
2022-12-14T06:07:27.997Z,980.41
2022-12-14T06:08:26.158Z,980.42
2022-12-14T06:09:25.176Z,980.35
2022-12-14T06:10:25.142Z,980.34
2022-12-14T06:11:25.141Z,980.37
2022-12-14T06:12:25.145Z,980.31
2022-12-14T06:13:25.402Z,980.28
2022-12-14T06:14:25.157Z,980.35
2022-12-14T06:15:29.399Z,980.35
2022-12-14T06:16:26.128Z,980.31
2022-12-14T06:17:26.045Z,980.31
2022-12-14T06:18:25.109Z,980.36
2022-12-14T06:19:25.161Z,980.38
2022-12-14T06:20:25.096Z,980.36
2022-12-14T06:21:25.092Z,980.34
2022-12-14T06:22:25.062Z,980.30
2022-12-14T06:23:25.533Z,980.34
2022-12-14T06:24:25.095Z,980.32
2022-12-14T06:25:25.060Z,980.36
2022-12-14T06:26:25.043Z,980.28
2022-12-14T06:27:25.055Z,980.32
2022-12-14T06:28:25.048Z,980.31
2022-12-14T06:29:25.041Z,980.30
2022-12-14T06:30:25.006Z,980.24
2022-12-14T06:31:25.088Z,980.21
2022-12-14T06:32:25.010Z,980.21
2022-12-14T06:33:25.339Z,980.26
2022-12-14T06:34:28.617Z,980.17
2022-12-14T06:35:26.023Z,980.20
2022-12-14T06:36:24.987Z,980.16
2022-12-14T06:37:24.970Z,980.11
2022-12-14T06:38:24.972Z,980.10
2022-12-14T06:39:24.975Z,980.09
2022-12-14T06:40:25.013Z,980.02
2022-12-14T06:41:24.943Z,980.09
2022-12-14T06:42:24.973Z,980.08
2022-12-14T06:43:25.326Z,979.99
2022-12-14T06:44:24.967Z,979.98
2022-12-14T06:45:25.004Z,979.89
2022-12-14T06:46:25.090Z,979.93
2022-12-14T06:47:25.166Z,979.93
2022-12-14T06:48:24.979Z,979.93
2022-12-14T06:49:24.950Z,979.98
2022-12-14T06:50:24.919Z,979.91
2022-12-14T06:51:25.247Z,979.89
2022-12-14T06:52:26.963Z,979.93
2022-12-14T06:53:26.260Z,979.88
2022-12-14T06:54:24.878Z,979.92
2022-12-14T06:55:24.836Z,979.88
2022-12-14T06:56:24.841Z,979.86
2022-12-14T06:57:24.853Z,979.95
2022-12-14T06:58:29.404Z,979.92
2022-12-14T06:59:26.813Z,979.86
2022-12-14T07:00:24.835Z,979.85
2022-12-14T07:01:24.917Z,979.84
2022-12-14T07:02:24.980Z,979.81
2022-12-14T07:03:25.149Z,979.79
2022-12-14T07:04:24.801Z,979.87
2022-12-14T07:05:24.801Z,979.85
2022-12-14T07:06:24.756Z,979.83
2022-12-14T07:07:24.773Z,979.85
2022-12-14T07:08:24.801Z,979.83
2022-12-14T07:09:24.818Z,979.75
2022-12-14T07:10:24.746Z,979.75
2022-12-14T07:11:24.761Z,979.76
2022-12-14T07:12:24.786Z,979.67
2022-12-14T07:13:25.070Z,979.66
2022-12-14T07:14:24.748Z,979.71
2022-12-14T07:15:24.747Z,979.68
2022-12-14T07:16:24.776Z,979.68
2022-12-14T07:17:24.743Z,979.61
2022-12-14T07:18:24.757Z,979.66
2022-12-14T07:19:24.677Z,979.61
2022-12-14T07:20:24.693Z,979.63
2022-12-14T07:21:24.693Z,979.63
2022-12-14T07:22:24.694Z,979.66
2022-12-14T07:23:27.816Z,979.63
2022-12-14T07:24:25.727Z,979.65
2022-12-14T07:25:24.705Z,979.64
2022-12-14T07:26:24.633Z,979.61
2022-12-14T07:27:24.702Z,979.55
2022-12-14T07:28:24.616Z,979.60
2022-12-14T07:29:28.341Z,979.61
2022-12-14T07:30:25.725Z,979.60
2022-12-14T07:31:24.727Z,979.60
2022-12-14T07:32:24.644Z,979.66
2022-12-14T07:33:24.730Z,979.56
2022-12-14T07:34:24.590Z,979.58
2022-12-14T07:35:24.616Z,979.61
2022-12-14T07:36:24.613Z,979.58
2022-12-14T07:37:24.604Z,979.60
2022-12-14T07:38:24.586Z,979.66
2022-12-14T07:39:24.556Z,979.67
2022-12-14T07:40:24.565Z,979.71
2022-12-14T07:41:24.553Z,979.68
2022-12-14T07:42:24.526Z,979.68
2022-12-14T07:43:24.765Z,979.68
2022-12-14T07:44:24.521Z,979.71
2022-12-14T07:45:24.547Z,979.77
2022-12-14T07:46:24.548Z,979.78
2022-12-14T07:47:24.517Z,979.82
2022-12-14T07:48:24.486Z,979.74
2022-12-14T07:49:24.509Z,979.71
2022-12-14T07:50:24.505Z,979.78
2022-12-14T07:51:24.562Z,979.77
2022-12-14T07:52:24.479Z,979.76
2022-12-14T07:53:24.764Z,979.75
2022-12-14T07:54:24.456Z,979.79
2022-12-14T07:55:24.466Z,979.79
2022-12-14T07:56:24.442Z,979.74
2022-12-14T07:57:24.484Z,979.62
2022-12-14T07:58:24.452Z,979.68
2022-12-14T07:59:24.423Z,979.65
2022-12-14T08:00:24.460Z,979.64
2022-12-14T08:01:24.533Z,979.66
2022-12-14T08:02:24.627Z,979.69
2022-12-14T08:03:24.401Z,979.67
2022-12-14T08:04:24.475Z,979.65
2022-12-14T08:05:24.405Z,979.62
2022-12-14T08:06:24.396Z,979.64
2022-12-14T08:07:24.387Z,979.61
2022-12-14T08:08:24.363Z,979.60
2022-12-14T08:09:24.448Z,979.61
2022-12-14T08:10:24.410Z,979.60
2022-12-14T08:11:24.415Z,979.59
2022-12-14T08:12:24.347Z,979.58
2022-12-14T08:13:24.375Z,979.53
2022-12-14T08:14:24.387Z,979.58
2022-12-14T08:15:24.360Z,979.54
2022-12-14T08:16:24.370Z,979.56
2022-12-14T08:17:24.331Z,979.58
2022-12-14T08:18:24.304Z,979.51
2022-12-14T08:19:24.370Z,979.57
2022-12-14T08:20:24.354Z,979.51
2022-12-14T08:21:24.302Z,979.54
2022-12-14T08:22:24.282Z,979.61
2022-12-14T08:23:24.276Z,979.58
2022-12-14T08:24:24.293Z,979.55
2022-12-14T08:25:24.290Z,979.52
2022-12-14T08:26:24.937Z,979.58
2022-12-14T08:27:24.287Z,979.54
2022-12-14T08:28:25.288Z,979.57
2022-12-14T08:29:24.289Z,979.58
2022-12-14T08:30:24.252Z,979.59
2022-12-14T08:31:24.378Z,979.58
2022-12-14T08:32:27.230Z,979.58
2022-12-14T08:33:25.216Z,979.60
2022-12-14T08:34:24.203Z,979.57
2022-12-14T08:35:24.287Z,979.55
2022-12-14T08:36:24.184Z,979.55
2022-12-14T08:37:24.200Z,979.58
2022-12-14T08:38:24.177Z,979.57
2022-12-14T08:39:24.375Z,979.53
2022-12-14T08:40:24.175Z,979.65
2022-12-14T08:41:24.230Z,979.60
2022-12-14T08:42:24.146Z,979.62
2022-12-14T08:43:25.224Z,979.59
2022-12-14T08:44:25.182Z,979.64
2022-12-14T08:45:24.185Z,979.58
2022-12-14T08:46:24.386Z,979.56
2022-12-14T08:47:24.111Z,979.56
2022-12-14T08:48:24.144Z,979.54
2022-12-14T08:49:29.056Z,979.60
2022-12-14T08:50:26.105Z,979.63
2022-12-14T08:51:24.128Z,979.58
2022-12-14T08:52:24.079Z,979.55
2022-12-14T08:53:24.090Z,979.56
2022-12-14T08:54:24.088Z,979.60
2022-12-14T08:55:29.184Z,979.55
2022-12-14T08:56:26.082Z,979.57
2022-12-14T08:57:24.080Z,979.63
2022-12-14T08:58:24.090Z,979.55
2022-12-14T08:59:51.965Z,979.51
2022-12-14T09:00:26.049Z,979.48
2022-12-14T09:01:30.301Z,979.53
2022-12-14T09:02:26.095Z,979.59
2022-12-14T09:03:24.057Z,979.54
2022-12-14T09:04:24.971Z,979.52
2022-12-14T09:05:24.023Z,979.52
2022-12-14T09:06:24.017Z,979.52
2022-12-14T09:07:24.014Z,979.52
2022-12-14T09:08:23.956Z,979.56
2022-12-14T09:09:23.992Z,979.60
2022-12-14T09:10:23.985Z,979.53
2022-12-14T09:11:23.956Z,979.54
2022-12-14T09:12:23.911Z,979.58
2022-12-14T09:13:23.939Z,979.57
2022-12-14T09:14:24.019Z,979.63
2022-12-14T09:15:23.936Z,979.62
2022-12-14T09:16:23.989Z,979.62
2022-12-14T09:17:23.943Z,979.52
2022-12-14T09:18:23.917Z,979.61
2022-12-14T09:19:24.585Z,979.64
2022-12-14T09:20:23.926Z,979.66
2022-12-14T09:21:23.905Z,979.67
2022-12-14T09:22:24.560Z,979.63
2022-12-14T09:23:23.894Z,979.58
2022-12-14T09:24:23.927Z,979.63
2022-12-14T09:25:23.921Z,979.61
2022-12-14T09:26:23.889Z,979.65
2022-12-14T09:27:23.875Z,979.64
2022-12-14T09:28:23.847Z,979.69
2022-12-14T09:29:23.844Z,979.70
2022-12-14T09:30:26.833Z,979.70
2022-12-14T09:31:25.029Z,979.71
2022-12-14T09:32:23.848Z,979.70
2022-12-14T09:33:23.843Z,979.67
2022-12-14T09:34:23.813Z,979.70
2022-12-14T09:35:23.832Z,979.71
2022-12-14T09:36:24.847Z,979.68
2022-12-14T09:37:23.867Z,979.66
2022-12-14T09:38:23.768Z,979.65
2022-12-14T09:39:23.791Z,979.64
2022-12-14T09:40:23.759Z,979.70
2022-12-14T09:41:23.794Z,979.67
2022-12-14T09:42:23.796Z,979.61
2022-12-14T09:43:23.761Z,979.60
2022-12-14T09:44:23.738Z,979.48
2022-12-14T09:45:23.787Z,979.47
2022-12-14T09:46:23.750Z,979.47
2022-12-14T09:47:23.740Z,979.41
2022-12-14T09:48:23.738Z,979.41
2022-12-14T09:49:23.742Z,979.41
2022-12-14T09:50:23.718Z,979.43
2022-12-14T09:51:23.804Z,979.40
2022-12-14T09:52:23.664Z,979.49
2022-12-14T09:53:23.676Z,979.44
2022-12-14T09:54:23.659Z,979.38
2022-12-14T09:55:23.691Z,979.39
2022-12-14T09:56:23.676Z,979.41
2022-12-14T09:57:23.714Z,979.39
2022-12-14T09:58:23.654Z,979.32
2022-12-14T09:59:23.685Z,979.37
2022-12-14T10:00:35.619Z,979.35
2022-12-14T10:01:24.731Z,979.34
2022-12-14T10:02:32.300Z,979.34
2022-12-14T10:03:25.909Z,979.38
2022-12-14T10:04:23.705Z,979.36
2022-12-14T10:05:23.653Z,979.34
2022-12-14T10:06:23.644Z,979.30
2022-12-14T10:07:23.609Z,979.27
2022-12-14T10:08:23.765Z,979.34
2022-12-14T10:09:23.566Z,979.33
2022-12-14T10:10:23.591Z,979.33
2022-12-14T10:11:23.600Z,979.32
2022-12-14T10:12:23.569Z,979.29
2022-12-14T10:13:23.614Z,979.33
2022-12-14T10:14:23.546Z,979.35
2022-12-14T10:15:24.538Z,979.28
2022-12-14T10:16:23.580Z,979.28
2022-12-14T10:17:23.549Z,979.27
2022-12-14T10:18:56.972Z,979.21
2022-12-14T10:19:25.547Z,979.23
2022-12-14T10:20:23.587Z,979.15
2022-12-14T10:21:23.503Z,979.13
2022-12-14T10:22:23.568Z,979.18
2022-12-14T10:23:23.521Z,979.21
2022-12-14T10:24:23.500Z,979.10
2022-12-14T10:25:23.476Z,979.14
2022-12-14T10:26:23.483Z,979.17
2022-12-14T10:27:23.484Z,979.15
2022-12-14T10:28:23.460Z,979.13
2022-12-14T10:29:23.482Z,979.11
2022-12-14T10:30:23.454Z,979.09
2022-12-14T10:31:23.531Z,979.06
2022-12-14T10:32:23.451Z,979.05
2022-12-14T10:33:23.496Z,979.01
2022-12-14T10:34:23.430Z,979.01
2022-12-14T10:35:23.440Z,979.05
2022-12-14T10:36:23.456Z,979.11
2022-12-14T10:37:23.417Z,979.07
2022-12-14T10:38:23.471Z,979.08
2022-12-14T10:39:23.442Z,979.07
2022-12-14T10:40:33.098Z,979.17
2022-12-14T10:41:25.420Z,979.16
2022-12-14T10:42:23.438Z,979.15
2022-12-14T10:43:23.383Z,979.21
2022-12-14T10:44:23.403Z,979.19
2022-12-14T10:45:40.169Z,979.19
2022-12-14T10:46:25.400Z,979.23
2022-12-14T10:47:24.332Z,979.21
2022-12-14T10:48:23.361Z,979.24
2022-12-14T10:49:23.381Z,979.23
2022-12-14T10:50:23.373Z,979.17
2022-12-14T10:51:23.360Z,979.20
2022-12-14T10:52:23.369Z,979.11
2022-12-14T10:53:23.300Z,979.12
2022-12-14T10:54:23.346Z,979.20
2022-12-14T10:55:23.366Z,979.10
2022-12-14T10:56:23.430Z,979.11
2022-12-14T10:57:23.294Z,979.06
2022-12-14T10:58:23.296Z,979.05
2022-12-14T10:59:23.279Z,979.01
2022-12-14T11:00:23.905Z,979.07
2022-12-14T11:01:23.386Z,979.04
2022-12-14T11:02:23.425Z,979.02
2022-12-14T11:03:24.276Z,979.01
2022-12-14T11:04:23.266Z,978.88
2022-12-14T11:05:23.239Z,978.94
2022-12-14T11:06:23.331Z,979.00
2022-12-14T11:07:23.265Z,978.92
2022-12-14T11:08:23.240Z,978.92
2022-12-14T11:09:23.214Z,978.94
2022-12-14T11:10:23.204Z,978.88
2022-12-14T11:11:23.249Z,978.94
2022-12-14T11:12:23.245Z,978.95
2022-12-14T11:13:23.241Z,978.87
2022-12-14T11:14:23.211Z,978.94
2022-12-14T11:15:23.213Z,978.91
2022-12-14T11:16:23.320Z,978.94
2022-12-14T11:17:23.251Z,978.96
2022-12-14T11:18:23.479Z,978.93
2022-12-14T11:19:23.132Z,978.89
2022-12-14T11:20:23.151Z,978.92
2022-12-14T11:21:23.162Z,978.93
2022-12-14T11:22:23.119Z,978.93
2022-12-14T11:23:23.181Z,978.90
2022-12-14T11:24:23.110Z,978.88
2022-12-14T11:25:23.130Z,978.87
2022-12-14T11:26:23.126Z,978.82
2022-12-14T11:27:23.093Z,978.85
2022-12-14T11:28:23.139Z,978.82
2022-12-14T11:29:23.109Z,978.78
2022-12-14T11:30:23.077Z,978.78
2022-12-14T11:31:23.184Z,978.80
2022-12-14T11:32:23.079Z,978.79
2022-12-14T11:33:23.066Z,978.76
2022-12-14T11:34:23.089Z,978.69
2022-12-14T11:35:23.113Z,978.77
2022-12-14T11:36:23.098Z,978.67
2022-12-14T11:37:23.133Z,978.70
2022-12-14T11:38:23.065Z,978.71
2022-12-14T11:39:23.070Z,978.73
2022-12-14T11:40:23.108Z,978.74
2022-12-14T11:41:23.044Z,978.67
2022-12-14T11:42:23.016Z,978.69
2022-12-14T11:43:23.103Z,978.68
2022-12-14T11:44:23.018Z,978.65
2022-12-14T11:45:22.978Z,978.62
2022-12-14T11:46:23.024Z,978.63
2022-12-14T11:47:23.001Z,978.65
2022-12-14T11:48:22.971Z,978.61
2022-12-14T11:49:22.956Z,978.61
2022-12-14T11:50:22.978Z,978.64
2022-12-14T11:51:22.942Z,978.61
2022-12-14T11:52:22.981Z,978.62
2022-12-14T11:53:22.934Z,978.61
2022-12-14T11:54:22.911Z,978.62
2022-12-14T18:00:48.881Z,980.04
2022-12-14T18:01:49.050Z,979.97
2022-12-14T18:02:49.100Z,979.96
2022-12-14T18:03:49.032Z,979.99
2022-12-14T18:04:48.924Z,980.01
2022-12-14T18:05:49.182Z,979.97
2022-12-14T18:06:49.873Z,980.06
2022-12-14T18:07:49.775Z,979.94
2022-12-14T18:08:48.879Z,980.03
2022-12-14T18:09:48.872Z,980.05
2022-12-14T18:10:48.846Z,980.09
2022-12-14T18:12:21.098Z,980.06
2022-12-14T18:12:50.849Z,980.02
2022-12-14T18:13:48.945Z,980.02
2022-12-14T18:14:48.823Z,980.04
2022-12-14T18:15:50.143Z,980.02
2022-12-14T18:16:48.837Z,980.06
2022-12-14T18:17:49.403Z,980.16
2022-12-14T18:18:49.229Z,980.09
2022-12-14T18:19:49.450Z,980.13
2022-12-14T18:20:49.467Z,980.14
2022-12-14T18:21:48.784Z,980.17
2022-12-14T18:22:49.592Z,980.20
2022-12-14T18:23:49.801Z,980.18
2022-12-14T18:24:49.260Z,980.14
2022-12-14T18:25:48.733Z,980.16
2022-12-14T18:26:48.713Z,980.11
2022-12-14T18:27:48.765Z,980.13
2022-12-14T18:28:48.712Z,980.10
2022-12-14T18:29:48.723Z,980.10
2022-12-14T18:30:49.798Z,980.10
2022-12-14T18:31:49.957Z,980.11
2022-12-14T18:32:48.678Z,980.13
2022-12-14T18:33:48.683Z,980.19
2022-12-14T18:34:48.689Z,980.17
2022-12-14T18:35:48.676Z,980.17
2022-12-14T18:36:48.656Z,980.15
2022-12-14T18:37:49.505Z,980.21
2022-12-14T18:38:49.452Z,980.21
2022-12-14T18:39:49.403Z,980.15
2022-12-14T18:40:49.687Z,980.19
2022-12-14T18:41:48.658Z,980.19
2022-12-14T18:42:48.640Z,980.20
2022-12-14T18:43:48.606Z,980.20
2022-12-14T18:44:48.625Z,980.15
2022-12-14T18:45:48.644Z,980.23
2022-12-14T18:46:49.505Z,980.15
2022-12-14T18:47:48.648Z,980.17
2022-12-14T18:48:48.610Z,980.19
2022-12-14T18:49:48.671Z,980.16
2022-12-14T18:50:49.718Z,980.21
2022-12-14T18:51:48.564Z,980.11
2022-12-14T18:52:48.589Z,980.21
2022-12-14T18:53:48.561Z,980.16
2022-12-14T18:54:48.624Z,980.20
2022-12-14T18:55:49.492Z,980.25
2022-12-14T18:56:49.331Z,980.22
2022-12-14T18:57:48.509Z,980.27
2022-12-14T18:58:48.527Z,980.33
2022-12-14T18:59:48.512Z,980.31
2022-12-14T19:00:48.524Z,980.40
2022-12-14T19:01:48.599Z,980.43
2022-12-14T19:02:49.725Z,980.39
2022-12-14T19:03:49.480Z,980.39
2022-12-14T19:04:48.530Z,980.37
2022-12-14T19:05:48.475Z,980.36
2022-12-14T19:06:48.480Z,980.42
2022-12-14T19:07:48.484Z,980.36
2022-12-14T19:08:49.458Z,980.41
2022-12-14T19:09:48.444Z,980.39
2022-12-14T19:10:48.454Z,980.38
2022-12-14T19:11:48.435Z,980.41
2022-12-14T19:12:48.432Z,980.38
2022-12-14T19:13:48.473Z,980.48
2022-12-14T19:14:48.401Z,980.45
2022-12-14T19:15:48.495Z,980.42
2022-12-14T19:16:48.444Z,980.49
2022-12-14T19:17:48.403Z,980.52
2022-12-14T19:18:48.420Z,980.52
2022-12-14T19:19:48.408Z,980.60
2022-12-14T19:20:49.536Z,980.58
2022-12-14T19:21:48.388Z,980.60
2022-12-14T19:22:48.403Z,980.54
2022-12-14T19:23:48.359Z,980.58
2022-12-14T19:24:52.359Z,980.61
2022-12-14T19:25:49.351Z,980.62
2022-12-14T19:26:49.373Z,980.63
2022-12-14T19:28:50.363Z,980.72
2022-12-14T19:29:48.338Z,980.64
2022-12-14T19:30:48.401Z,980.66
2022-12-14T19:31:53.901Z,980.63
2022-12-14T19:32:50.337Z,980.60
2022-12-14T19:33:48.301Z,980.60
2022-12-14T19:34:48.283Z,980.60
2022-12-14T19:35:48.258Z,980.65
2022-12-14T19:36:48.355Z,980.60
2022-12-14T19:37:48.303Z,980.61
2022-12-14T19:38:49.076Z,980.61
2022-12-14T19:39:48.363Z,980.62
2022-12-14T19:40:48.259Z,980.55
2022-12-14T19:41:48.242Z,980.61
2022-12-14T19:42:48.234Z,980.61
2022-12-14T19:43:48.218Z,980.51
2022-12-14T19:44:49.313Z,980.58
2022-12-14T19:45:48.198Z,980.63
2022-12-14T19:46:49.266Z,980.63
2022-12-14T19:47:48.180Z,980.61
2022-12-14T19:48:48.274Z,980.61
2022-12-14T19:49:48.210Z,980.66
2022-12-14T19:50:49.505Z,980.61
2022-12-14T19:51:48.146Z,980.60
2022-12-14T19:52:48.192Z,980.65
2022-12-14T19:53:48.240Z,980.61
2022-12-14T19:54:48.181Z,980.65
2022-12-14T19:55:48.144Z,980.66
2022-12-14T19:56:49.271Z,980.71
2022-12-14T19:57:48.125Z,980.70
2022-12-14T19:58:48.205Z,980.67
2022-12-14T19:59:48.172Z,980.69
2022-12-14T20:00:57.129Z,980.66
2022-12-14T20:01:55.425Z,980.71
2022-12-14T20:02:55.156Z,980.75
2022-12-14T20:03:51.531Z,980.73
2022-12-14T20:04:48.139Z,980.80
2022-12-14T20:05:48.097Z,980.78
2022-12-14T20:06:48.073Z,980.82
2022-12-14T20:07:48.164Z,980.86
2022-12-14T20:08:49.309Z,980.87
2022-12-14T20:09:48.106Z,980.86
2022-12-14T20:10:48.080Z,980.90
2022-12-14T20:11:48.035Z,980.94
2022-12-14T20:12:48.100Z,980.89
2022-12-14T20:13:51.850Z,980.91
2022-12-14T20:14:50.502Z,980.96
2022-12-14T20:15:48.095Z,980.93
2022-12-14T20:16:48.052Z,981.01
2022-12-14T20:17:48.033Z,981.03
2022-12-14T20:18:48.007Z,980.99
2022-12-14T20:19:48.010Z,981.03
2022-12-14T20:20:49.549Z,981.10
2022-12-14T20:21:47.962Z,980.99
2022-12-14T20:22:47.978Z,981.03
2022-12-14T20:23:47.992Z,981.06
2022-12-14T20:24:47.970Z,981.00
2022-12-14T20:25:47.970Z,981.07
2022-12-14T20:26:49.297Z,981.04
2022-12-14T20:27:48.942Z,981.11
2022-12-14T20:28:47.938Z,981.09
2022-12-14T20:29:47.950Z,981.05
2022-12-14T20:30:47.898Z,981.14
2022-12-14T20:31:47.984Z,981.08
2022-12-14T20:32:49.313Z,981.10
2022-12-14T20:33:47.924Z,981.14
2022-12-14T20:34:47.954Z,981.09
2022-12-14T20:35:47.903Z,981.18
2022-12-14T20:36:47.884Z,981.19
2022-12-14T20:37:47.897Z,981.30
2022-12-14T20:38:49.111Z,981.24
2022-12-14T20:39:47.899Z,981.29
2022-12-14T20:40:47.860Z,981.32
2022-12-14T20:41:47.845Z,981.30
2022-12-14T20:42:47.830Z,981.33
2022-12-14T20:43:47.852Z,981.37
2022-12-14T20:44:49.396Z,981.37
2022-12-14T20:45:47.857Z,981.39
2022-12-14T20:46:47.862Z,981.34
2022-12-14T20:47:47.825Z,981.42
2022-12-14T20:48:47.801Z,981.37
2022-12-14T20:49:47.825Z,981.39
2022-12-14T20:50:50.393Z,981.41
2022-12-14T20:51:47.775Z,981.43
2022-12-14T20:52:49.079Z,981.38
2022-12-14T20:53:49.294Z,981.39
2022-12-14T20:54:47.768Z,981.49
2022-12-14T20:55:47.776Z,981.48
2022-12-14T20:56:49.635Z,981.49
2022-12-14T20:57:47.739Z,981.57
2022-12-14T20:58:47.740Z,981.49
2022-12-14T20:59:47.766Z,981.49
2022-12-14T21:00:47.766Z,981.57
2022-12-14T21:01:53.576Z,981.59
2022-12-14T21:02:49.853Z,981.61
2022-12-14T21:03:47.760Z,981.58
2022-12-14T21:04:47.730Z,981.55
2022-12-14T21:05:47.709Z,981.63
2022-12-14T21:06:47.761Z,981.60
2022-12-14T21:07:47.720Z,981.59
2022-12-14T21:08:47.715Z,981.58
2022-12-14T21:09:47.684Z,981.59
2022-12-14T21:10:47.716Z,981.61
2022-12-14T21:11:47.674Z,981.62
2022-12-14T21:12:47.636Z,981.59
2022-12-14T21:13:47.632Z,981.59
2022-12-14T21:14:48.197Z,981.65
2022-12-14T21:15:47.637Z,981.62
2022-12-14T21:16:47.804Z,981.59
2022-12-14T21:17:47.615Z,981.53
2022-12-14T21:18:47.631Z,981.55
2022-12-14T21:19:47.614Z,981.55
2022-12-14T21:20:49.244Z,981.57
2022-12-14T21:21:53.318Z,981.59
2022-12-14T21:22:49.575Z,981.57
2022-12-14T21:23:47.576Z,981.58
2022-12-14T21:25:05.381Z,981.58
2022-12-14T21:25:49.602Z,981.58
2022-12-14T21:26:47.546Z,981.58
2022-12-14T21:27:47.553Z,981.64
2022-12-14T21:28:47.559Z,981.63
2022-12-14T21:29:47.555Z,981.61
2022-12-14T21:30:47.547Z,981.59
2022-12-14T21:31:47.639Z,981.55
2022-12-14T21:32:47.522Z,981.65
2022-12-14T21:33:49.922Z,981.60
2022-12-14T21:34:48.509Z,981.71
2022-12-14T21:35:47.549Z,981.61
2022-12-14T21:36:47.500Z,981.62
2022-12-14T21:37:47.506Z,981.62
2022-12-14T21:38:47.486Z,981.64
2022-12-14T21:39:54.390Z,981.63
2022-12-14T21:40:49.523Z,981.67
2022-12-14T21:41:47.481Z,981.62
2022-12-14T21:42:47.471Z,981.70
2022-12-14T21:43:47.484Z,981.70
2022-12-14T21:44:47.555Z,981.76
2022-12-14T21:45:47.549Z,981.71
2022-12-14T21:46:47.454Z,981.71
2022-12-14T21:47:47.415Z,981.70
2022-12-14T21:48:47.413Z,981.74
2022-12-14T21:49:47.418Z,981.73
2022-12-14T21:50:48.752Z,981.78
2022-12-14T21:51:50.615Z,981.82
2022-12-14T21:52:47.405Z,981.76
2022-12-14T21:53:47.399Z,981.76
2022-12-14T21:54:47.400Z,981.74
2022-12-14T21:55:47.418Z,981.80
2022-12-14T21:56:47.370Z,981.78
2022-12-14T21:57:49.782Z,981.79
2022-12-14T21:58:52.766Z,981.84
2022-12-14T21:59:49.582Z,981.78
2022-12-14T22:00:47.429Z,981.81
2022-12-14T22:01:47.477Z,981.76
2022-12-14T22:02:47.466Z,981.81
2022-12-14T22:03:47.342Z,981.90
2022-12-14T22:04:47.316Z,981.81
2022-12-14T22:05:47.380Z,981.84
2022-12-14T22:06:47.333Z,981.84
2022-12-14T22:07:47.279Z,981.84
2022-12-14T22:08:47.290Z,981.85
2022-12-14T22:09:49.528Z,981.87
2022-12-14T22:10:47.296Z,981.80
2022-12-14T22:11:47.266Z,981.78
2022-12-14T22:12:47.295Z,981.83
2022-12-14T22:13:47.276Z,981.82
2022-12-14T22:14:47.244Z,981.83
2022-12-14T22:15:47.261Z,981.91
2022-12-14T22:16:47.336Z,981.85
2022-12-14T22:17:47.265Z,981.95
2022-12-14T22:18:47.240Z,981.91
2022-12-14T22:19:47.266Z,981.95
2022-12-14T22:20:47.259Z,981.91
2022-12-14T22:21:47.201Z,981.86
2022-12-14T22:22:47.209Z,981.91
2022-12-14T22:23:47.212Z,981.93
2022-12-14T22:24:47.207Z,981.89
2022-12-14T22:25:47.203Z,981.88
2022-12-14T22:26:47.166Z,981.87
2022-12-14T22:27:49.763Z,981.86
2022-12-14T22:28:47.217Z,981.86
2022-12-14T22:29:47.144Z,981.83
2022-12-14T22:30:47.176Z,981.88
2022-12-14T22:31:47.238Z,981.88
2022-12-14T22:32:47.137Z,981.83
2022-12-14T22:33:49.641Z,981.83
2022-12-14T22:34:47.140Z,981.80
2022-12-14T22:35:47.169Z,981.85
2022-12-14T22:36:47.111Z,981.80
2022-12-14T22:37:47.124Z,981.84
2022-12-14T22:38:47.143Z,981.78
2022-12-14T22:39:47.813Z,981.77
2022-12-14T22:40:47.196Z,981.76
2022-12-14T22:41:47.152Z,981.80
2022-12-14T22:42:47.115Z,981.75
2022-12-14T22:43:47.111Z,981.76
2022-12-14T22:44:47.097Z,981.80
2022-12-14T22:45:47.118Z,981.78
2022-12-14T22:46:47.079Z,981.87
2022-12-14T22:47:47.056Z,981.83
2022-12-14T22:48:47.054Z,981.81
2022-12-14T22:49:47.053Z,981.84
2022-12-14T22:50:47.073Z,981.77
2022-12-14T22:51:47.046Z,981.76
2022-12-14T22:52:49.658Z,981.82
2022-12-14T22:53:49.716Z,981.77
2022-12-14T22:54:49.780Z,981.81
2022-12-14T22:55:49.731Z,981.81
2022-12-14T22:56:47.055Z,981.83
2022-12-14T22:57:46.995Z,981.83
2022-12-14T22:58:49.455Z,981.86
2022-12-14T22:59:46.986Z,981.84
2022-12-14T23:00:46.995Z,981.86
2022-12-14T23:01:49.614Z,981.89
2022-12-14T23:02:48.642Z,981.86
2022-12-14T23:03:48.137Z,981.85
2022-12-14T23:04:46.962Z,981.88
2022-12-14T23:05:46.971Z,981.90
2022-12-14T23:06:46.997Z,981.90
2022-12-14T23:07:46.948Z,981.87
2022-12-14T23:08:46.915Z,981.82
2022-12-14T23:09:46.939Z,981.84
2022-12-14T23:10:46.969Z,981.83
2022-12-14T23:11:46.921Z,981.83
2022-12-14T23:12:46.963Z,981.89
2022-12-14T23:13:46.925Z,981.88
2022-12-14T23:14:46.962Z,981.93
2022-12-14T23:15:46.913Z,981.91
2022-12-14T23:16:50.117Z,981.98
2022-12-14T23:17:46.922Z,981.96
2022-12-14T23:18:46.888Z,981.92
2022-12-14T23:19:46.948Z,981.95
2022-12-14T23:20:46.905Z,981.93
2022-12-14T23:21:46.908Z,981.91
2022-12-14T23:22:46.873Z,981.91
2022-12-14T23:23:46.860Z,981.94
2022-12-14T23:24:46.845Z,981.97
2022-12-14T23:25:46.851Z,981.93
2022-12-14T23:26:46.846Z,981.95
2022-12-14T23:27:46.856Z,981.95
2022-12-14T23:28:49.878Z,981.95
2022-12-14T23:29:46.856Z,982.03
2022-12-14T23:30:47.022Z,982.01
2022-12-14T23:31:46.880Z,981.98
2022-12-14T23:32:46.804Z,982.04
2022-12-14T23:33:46.792Z,982.04
2022-12-14T23:34:47.959Z,982.06
2022-12-14T23:35:46.807Z,982.04
2022-12-14T23:36:46.778Z,982.12
2022-12-14T23:37:46.765Z,982.03
2022-12-14T23:38:46.761Z,982.02
2022-12-14T23:39:46.783Z,982.07
2022-12-14T23:40:46.760Z,982.06
2022-12-14T23:41:46.759Z,982.05
2022-12-14T23:42:46.739Z,982.08
2022-12-14T23:43:46.746Z,982.08
2022-12-14T23:44:46.748Z,982.13
2022-12-14T23:45:46.766Z,982.17
2022-12-14T23:46:46.807Z,982.20
2022-12-14T23:47:46.740Z,982.22
2022-12-14T23:48:46.709Z,982.23
2022-12-14T23:49:46.688Z,982.22
2022-12-14T23:50:46.686Z,982.30
2022-12-14T23:51:46.688Z,982.22
2022-12-14T23:52:46.673Z,982.22
2022-12-14T23:53:50.106Z,982.21
2022-12-14T23:54:46.662Z,982.29
2022-12-14T23:55:46.673Z,982.22
2022-12-14T23:56:46.658Z,982.25
2022-12-14T23:57:46.647Z,982.24
2022-12-14T23:58:46.665Z,982.25
2022-12-14T23:59:49.565Z,982.21
